Weather at Campo de Vuelo de Pozorrubio

Public forecast

Using degrees Celsius for public forecast. Weather courtesy of forecast.io.

Closest aviation weather report (METAR) to Campo de Vuelo de Pozorrubio

Closest report is Getafe Air Base, 45.2 nm (83.8 km) NW. Retrieved 2021/04/17 16:00 UTC (20 minutes ago):

LEGT 171600Z 25005KT 200V300 CAVOK 18/M03 Q1016

Closest aviation forecast (TAF) to Campo de Vuelo de Pozorrubio

Closest forecast is Getafe Air Base, 45.2 nm (83.8 km) NW. Retrieved 2021/04/17 12:00 UTC (4 hours ago):

TAF LEGT 171100Z 1712/1812 01007KT CAVOK TX18/1716Z TN03/1806Z